Time;durP1;ratioP1;P1;durP2;ratioP2;P2;SDS_P1;SDS_P2;PMS_P1;PMS_P2;Temp;Humidity;BMP_temperature;BMP_pressure;BME280_temperature;BME280_humidity;BME280_pressure;Samples;Min_cycle;Max_cycle;Signal;HPM_P1;HPM_P2
2022/12/01 00:01:35;;;;;;;;;;;16.90;52.80;;;;;;5091691;28;19923;-67
2022/12/01 00:04:01;;;;;;;;;;;16.90;52.80;;;;;;5092122;28;20015;-67
2022/12/01 00:06:26;;;;;;;;;;;16.90;52.80;;;;;;5092786;28;19920;-67
2022/12/01 00:11:37;;;;;;;;;;;16.90;52.90;;;;;;5091646;28;19931;-67
2022/12/01 00:14:04;;;;;;;;;;;16.80;52.90;;;;;;5092909;28;19924;-67
2022/12/01 00:16:29;;;;;;;;;;;16.80;52.90;;;;;;5091506;28;19920;-67
2022/12/01 00:18:55;;;;;;;;;;;16.80;52.90;;;;;;5091455;28;19926;-67
2022/12/01 00:21:21;;;;;;;;;;;16.80;52.90;;;;;;5091437;28;19927;-68
2022/12/01 00:23:48;;;;;;;;;;;16.80;52.90;;;;;;5092614;28;19927;-67
2022/12/01 00:26:14;;;;;;;;;;;16.80;52.90;;;;;;5091651;28;19928;-67
2022/12/01 00:28:40;;;;;;;;;;;16.80;52.90;;;;;;5091495;28;20487;-67
2022/12/01 00:31:06;;;;;;;;;;;16.80;52.90;;;;;;5091578;28;20011;-67
2022/12/01 00:33:32;;;;;;;;;;;16.80;52.90;;;;;;5091341;28;19924;-67
2022/12/01 00:35:59;;;;;;;;;;;17.50;53.30;;;;;;5092407;28;19920;-67
2022/12/01 00:38:25;;;;;;;;;;;16.80;52.90;;;;;;5092396;28;20437;-68
2022/12/01 00:40:50;;;;;;;;;;;16.70;52.90;;;;;;5092463;28;19920;-67
2022/12/01 00:43:16;;;;;;;;;;;16.70;52.90;;;;;;5091040;28;19969;-68
2022/12/01 00:45:42;;;;;;;;;;;16.70;52.90;;;;;;5092571;28;20226;-67
2022/12/01 00:48:07;;;;;;;;;;;16.80;53.00;;;;;;5090948;28;19924;-67
2022/12/01 00:50:33;;;;;;;;;;;16.70;53.00;;;;;;5090861;28;20006;-67
2022/12/01 00:52:59;;;;;;;;;;;16.60;52.90;;;;;;5091301;28;20420;-67
2022/12/01 00:55:24;;;;;;;;;;;16.70;53.10;;;;;;5091379;28;19965;-68
2022/12/01 00:57:50;;;;;;;;;;;16.60;53.00;;;;;;5091013;28;20015;-67
2022/12/01 01:00:16;;;;;;;;;;;16.60;53.00;;;;;;5091333;28;19923;-67
2022/12/01 01:02:41;;;;;;;;;;;16.70;53.10;;;;;;5074451;28;19972;-68
2022/12/01 01:05:07;;;;;;;;;;;16.70;53.20;;;;;;5091012;28;20396;-67
2022/12/01 01:07:33;;;;;;;;;;;16.60;53.10;;;;;;5090975;28;19924;-67
2022/12/01 01:09:58;;;;;;;;;;;16.60;53.10;;;;;;5092293;28;19920;-67
2022/12/01 01:12:24;;;;;;;;;;;16.60;53.10;;;;;;5092174;28;20276;-67
2022/12/01 01:14:50;;;;;;;;;;;16.60;53.10;;;;;;5092232;28;19939;-67
2022/12/01 01:17:15;;;;;;;;;;;16.60;53.10;;;;;;5090920;28;20158;-67
2022/12/01 01:19:41;;;;;;;;;;;16.60;53.10;;;;;;5091244;28;19920;-67
2022/12/01 01:22:07;;;;;;;;;;;16.60;53.10;;;;;;5090845;28;20291;-67
2022/12/01 01:24:32;;;;;;;;;;;16.60;53.10;;;;;;5091117;28;20014;-67
2022/12/01 01:26:58;;;;;;;;;;;16.60;53.10;;;;;;5091034;28;19924;-67
2022/12/01 01:29:23;;;;;;;;;;;16.60;53.20;;;;;;5090323;28;20375;-67
2022/12/01 01:31:49;;;;;;;;;;;16.60;53.20;;;;;;5090710;28;19920;-67
2022/12/01 01:34:14;;;;;;;;;;;16.60;53.20;;;;;;5093889;28;19920;-67
2022/12/01 01:36:40;;;;;;;;;;;16.50;53.20;;;;;;5095710;28;20379;-67
2022/12/01 01:39:05;;;;;;;;;;;16.50;53.20;;;;;;5094754;28;20068;-67
2022/12/01 01:41:31;;;;;;;;;;;16.50;53.20;;;;;;5095723;28;20017;-68
2022/12/01 01:43:58;;;;;;;;;;;16.50;53.20;;;;;;5094592;28;20077;-68
2022/12/01 01:46:25;;;;;;;;;;;16.50;53.20;;;;;;5094422;28;19924;-67
2022/12/01 01:48:53;;;;;;;;;;;16.50;53.20;;;;;;5093964;28;20363;-67
2022/12/01 01:51:21;;;;;;;;;;;16.50;53.20;;;;;;5094295;28;19924;-67
2022/12/01 01:53:47;;;;;;;;;;;16.50;53.30;;;;;;5094112;28;19921;-67
2022/12/01 01:56:13;;;;;;;;;;;16.50;53.30;;;;;;5095506;28;19920;-67
2022/12/01 01:58:40;;;;;;;;;;;16.50;53.30;;;;;;5094104;28;20291;-67
2022/12/01 02:01:05;;;;;;;;;;;16.80;53.00;;;;;;5094551;28;20286;-67
2022/12/01 02:03:31;;;;;;;;;;;17.20;52.30;;;;;;5094400;28;20019;-67
2022/12/01 02:05:57;;;;;;;;;;;17.60;51.10;;;;;;5093949;28;19920;-67
2022/12/01 02:08:22;;;;;;;;;;;18.20;50.00;;;;;;5095124;28;19923;-67
2022/12/01 02:11:08;;;;;;;;;;;18.80;48.70;;;;;;5095115;28;19924;-67
2022/12/01 02:13:49;;;;;;;;;;;19.60;47.20;;;;;;5095039;28;19924;-68
2022/12/01 02:16:34;;;;;;;;;;;20.60;45.40;;;;;;5095139;28;19920;-67
2022/12/01 02:21:47;;;;;;;;;;;22.30;41.90;;;;;;5089858;28;20287;-68
2022/12/01 02:24:33;;;;;;;;;;;22.90;40.60;;;;;;5088591;28;19928;-67
2022/12/01 02:27:05;;;;;;;;;;;23.30;39.70;;;;;;5088530;28;20343;-67
2022/12/01 02:29:50;;;;;;;;;;;23.80;39.00;;;;;;5088411;28;19921;-67
2022/12/01 02:32:29;;;;;;;;;;;24.10;38.40;;;;;;5087453;28;19920;-67
2022/12/01 02:34:58;;;;;;;;;;;24.40;38.00;;;;;;5088456;28;19920;-67
2022/12/01 02:37:33;;;;;;;;;;;24.50;37.50;;;;;;5088284;28;20396;-67
2022/12/01 02:42:58;;;;;;;;;;;24.90;37.00;;;;;;5110625;27;19918;-67
2022/12/01 02:45:28;;;;;;;;;;;24.90;36.80;;;;;;5108947;28;20430;-68
2022/12/01 02:47:55;;;;;;;;;;;25.10;36.70;;;;;;5109195;28;20321;-67
2022/12/01 02:50:22;;;;;;;;;;;25.20;36.50;;;;;;5109155;28;19973;-67
2022/12/01 02:52:48;;;;;;;;;;;25.30;36.40;;;;;;5108807;28;19926;-67
2022/12/01 02:55:13;;;;;;;;;;;25.30;36.40;;;;;;5108942;28;19949;-67
2022/12/01 02:57:39;;;;;;;;;;;25.40;36.30;;;;;;5110089;28;19927;-67
2022/12/01 03:00:05;;;;;;;;;;;25.40;36.20;;;;;;5108650;28;19957;-68
2022/12/01 03:02:51;;;;;;;;;;;25.50;36.10;;;;;;5109824;28;20409;-67
2022/12/01 03:08:18;;;;;;;;;;;25.60;36.00;;;;;;5089802;28;20379;-67
2022/12/01 03:16:10;;;;;;;;;;;25.70;36.00;;;;;;5110353;27;19937;-67
2022/12/01 03:18:56;;;;;;;;;;;25.60;35.80;;;;;;5110208;28;19924;-68
2022/12/01 03:21:26;;;;;;;;;;;25.70;36.00;;;;;;5110132;28;20166;-67
2022/12/01 03:23:55;;;;;;;;;;;25.70;35.90;;;;;;5109076;28;19920;-67
2022/12/01 03:26:22;;;;;;;;;;;25.70;35.80;;;;;;5109125;28;19920;-68
2022/12/01 03:28:51;;;;;;;;;;;25.70;35.90;;;;;;5110066;28;19924;-67
2022/12/01 03:31:19;;;;;;;;;;;25.60;35.80;;;;;;5109216;28;19920;-67
2022/12/01 03:33:49;;;;;;;;;;;25.60;35.90;;;;;;5108125;28;19920;-67
2022/12/01 03:36:19;;;;;;;;;;;25.50;36.00;;;;;;5108603;28;20383;-67
2022/12/01 03:38:47;;;;;;;;;;;25.60;36.10;;;;;;5109723;28;20023;-67
2022/12/01 03:41:16;;;;;;;;;;;25.50;36.10;;;;;;5108491;28;19927;-67
2022/12/01 03:43:43;;;;;;;;;;;25.50;36.10;;;;;;5108638;28;20011;-67
2022/12/01 03:48:51;;;;;;;;;;;25.50;36.00;;;;;;5110234;27;19912;-67
2022/12/01 03:51:24;;;;;;;;;;;25.60;35.90;;;;;;5108916;28;19920;-67
2022/12/01 03:53:58;;;;;;;;;;;25.60;35.90;;;;;;5108898;28;19920;-67
2022/12/01 03:56:29;;;;;;;;;;;25.60;35.90;;;;;;5108851;28;20431;-67
2022/12/01 03:58:56;;;;;;;;;;;25.50;35.80;;;;;;5108999;28;19920;-67
2022/12/01 04:01:22;;;;;;;;;;;25.60;35.90;;;;;;5108812;28;20432;-67
2022/12/01 04:03:48;;;;;;;;;;;25.60;35.90;;;;;;5108626;28;20010;-67
2022/12/01 04:06:14;;;;;;;;;;;25.60;35.90;;;;;;5109042;28;19922;-67
2022/12/01 04:08:39;;;;;;;;;;;25.50;35.90;;;;;;5108458;28;20287;-67
2022/12/01 04:12:28;;;;;;;;;;;25.50;36.00;;;;;;5109846;28;19972;-67
2022/12/01 04:13:50;;;;;;;;;;;25.50;36.00;;;;;;5109558;28;19924;-67
2022/12/01 04:16:16;;;;;;;;;;;25.40;36.10;;;;;;5109818;28;19958;-68
2022/12/01 04:18:41;;;;;;;;;;;25.40;36.10;;;;;;5108279;28;19927;-67
2022/12/01 04:21:07;;;;;;;;;;;25.40;36.10;;;;;;5109688;28;19927;-67
2022/12/01 04:24:04;;;;;;;;;;;25.40;36.20;;;;;;5109748;28;19923;-67
2022/12/01 04:26:18;;;;;;;;;;;25.30;36.20;;;;;;5109424;28;19945;-67
2022/12/01 04:28:44;;;;;;;;;;;25.30;36.20;;;;;;5109519;28;19920;-68
2022/12/01 04:31:12;;;;;;;;;;;25.30;36.30;;;;;;5108397;28;19920;-67
2022/12/01 04:33:38;;;;;;;;;;;25.30;36.40;;;;;;5108163;28;19924;-67
2022/12/01 04:36:03;;;;;;;;;;;25.20;36.30;;;;;;5109471;28;19966;-67
2022/12/01 04:38:29;;;;;;;;;;;25.20;36.30;;;;;;5109376;28;20326;-67
2022/12/01 04:40:54;;;;;;;;;;;25.20;36.30;;;;;;5107926;28;19967;-67
2022/12/01 04:43:20;;;;;;;;;;;25.20;36.40;;;;;;5108033;28;19970;-67
2022/12/01 04:45:46;;;;;;;;;;;25.20;36.40;;;;;;5107910;28;19928;-67
2022/12/01 04:48:11;;;;;;;;;;;25.10;36.40;;;;;;5141850;27;19924;-67
2022/12/01 04:50:37;;;;;;;;;;;25.20;36.50;;;;;;5107758;28;19972;-68
2022/12/01 04:53:03;;;;;;;;;;;25.10;36.40;;;;;;5109146;28;20022;-67
2022/12/01 04:55:28;;;;;;;;;;;25.10;36.40;;;;;;5108929;28;20116;-67
2022/12/01 04:57:54;;;;;;;;;;;25.20;36.50;;;;;;5108409;28;19965;-67
2022/12/01 05:00:19;;;;;;;;;;;25.20;36.50;;;;;;5093571;28;19946;-67
2022/12/01 05:02:45;;;;;;;;;;;25.20;36.50;;;;;;5095256;28;19920;-67
2022/12/01 05:05:11;;;;;;;;;;;25.10;36.50;;;;;;5093965;28;20291;-67
2022/12/01 05:07:36;;;;;;;;;;;25.10;36.50;;;;;;5095310;28;19943;-67
2022/12/01 05:10:03;;;;;;;;;;;25.10;36.50;;;;;;5095181;28;19943;-67
2022/12/01 05:12:28;;;;;;;;;;;25.20;36.50;;;;;;5093790;28;20011;-67
2022/12/01 05:14:54;;;;;;;;;;;25.20;36.40;;;;;;5094150;28;19999;-68
2022/12/01 05:17:19;;;;;;;;;;;25.20;36.30;;;;;;5094933;28;19920;-67
2022/12/01 05:22:30;;;;;;;;;;;25.30;36.20;;;;;;5093423;28;19924;-67
2022/12/01 05:24:56;;;;;;;;;;;25.40;36.20;;;;;;5093969;28;19920;-67
2022/12/01 05:27:21;;;;;;;;;;;25.40;36.10;;;;;;5094068;28;20334;-68
2022/12/01 05:29:47;;;;;;;;;;;25.40;36.00;;;;;;5094779;28;19920;-67
2022/12/01 05:32:12;;;;;;;;;;;25.50;36.00;;;;;;5094604;28;19927;-67
2022/12/01 05:34:38;;;;;;;;;;;25.50;36.40;;;;;;5094897;28;20363;-67
2022/12/01 05:37:04;;;;;;;;;;;25.40;36.00;;;;;;5094788;28;20003;-67
2022/12/01 05:39:30;;;;;;;;;;;25.30;36.10;;;;;;5094631;28;19973;-67
2022/12/01 05:41:55;;;;;;;;;;;25.30;36.20;;;;;;5094559;28;20305;-67
2022/12/01 05:44:20;;;;;;;;;;;25.20;36.20;;;;;;5093498;28;19928;-67
2022/12/01 05:46:46;;;;;;;;;;;25.20;36.30;;;;;;5092428;28;19932;-68
2022/12/01 05:49:12;;;;;;;;;;;25.10;37.10;;;;;;5092975;28;19924;-67
2022/12/01 05:51:37;;;;;;;;;;;25.00;36.40;;;;;;5094433;28;19920;-67
2022/12/01 05:54:03;;;;;;;;;;;25.00;36.50;;;;;;5094442;28;19966;-67
2022/12/01 05:56:28;;;;;;;;;;;24.90;36.50;;;;;;5093182;28;19990;-67
2022/12/01 05:58:54;;;;;;;;;;;24.90;36.60;;;;;;5094090;28;19920;-67
2022/12/01 06:01:20;;;;;;;;;;;24.90;36.60;;;;;;5094186;28;19920;-67
2022/12/01 06:03:46;;;;;;;;;;;24.90;36.70;;;;;;5094060;28;19931;-67
2022/12/01 06:06:11;;;;;;;;;;;24.80;36.70;;;;;;5093313;28;19920;-67
2022/12/01 06:08:37;;;;;;;;;;;24.80;36.80;;;;;;5093896;28;20276;-67
2022/12/01 06:11:02;;;;;;;;;;;24.80;36.80;;;;;;5091663;28;19920;-67
2022/12/01 06:13:28;;;;;;;;;;;24.80;36.80;;;;;;5092600;28;19920;-67
2022/12/01 06:15:54;;;;;;;;;;;24.80;36.80;;;;;;5092935;28;19920;-67
2022/12/01 06:18:20;;;;;;;;;;;24.80;36.80;;;;;;5093732;28;20315;-67
2022/12/01 06:20:45;;;;;;;;;;;24.80;36.80;;;;;;5093043;28;19939;-67
2022/12/01 06:23:11;;;;;;;;;;;24.70;36.70;;;;;;5092389;28;19920;-67
2022/12/01 06:25:36;;;;;;;;;;;24.80;36.80;;;;;;5092423;28;19927;-67
2022/12/01 06:28:02;;;;;;;;;;;24.80;36.80;;;;;;5093517;28;20158;-67
2022/12/01 06:30:27;;;;;;;;;;;24.80;36.80;;;;;;5093661;28;20314;-67
2022/12/01 06:32:53;;;;;;;;;;;24.80;36.70;;;;;;5093426;28;19956;-67
2022/12/01 06:35:19;;;;;;;;;;;24.80;36.70;;;;;;5093523;28;19967;-65
2022/12/01 06:37:45;;;;;;;;;;;24.80;36.70;;;;;;5091489;28;19965;-65
2022/12/01 06:40:11;;;;;;;;;;;24.70;36.90;;;;;;5090923;28;19973;-66
2022/12/01 06:42:36;;;;;;;;;;;24.50;37.50;;;;;;5090110;28;19924;-67
2022/12/01 06:45:02;;;;;;;;;;;24.30;37.90;;;;;;5090532;28;20279;-66
2022/12/01 06:47:27;;;;;;;;;;;24.20;38.00;;;;;;5090692;28;19973;-67
2022/12/01 06:49:53;;;;;;;;;;;24.10;38.20;;;;;;5091908;28;19919;-66
2022/12/01 06:52:18;;;;;;;;;;;24.20;38.30;;;;;;5092063;28;19924;-66
2022/12/01 06:54:44;;;;;;;;;;;24.30;38.30;;;;;;5088948;28;19974;-66
2022/12/01 06:57:09;;;;;;;;;;;24.40;38.00;;;;;;5088817;28;19927;-66
2022/12/01 06:59:35;;;;;;;;;;;24.60;37.70;;;;;;5090550;28;20007;-66
2022/12/01 07:02:01;;;;;;;;;;;24.80;37.30;;;;;;5088486;28;19972;-66
2022/12/01 07:04:28;;;;;;;;;;;24.70;36.90;;;;;;5074114;28;19970;-66
2022/12/01 07:06:53;;;;;;;;;;;24.70;37.00;;;;;;5079916;28;19977;-68
2022/12/01 07:09:19;;;;;;;;;;;24.80;37.10;;;;;;5105366;27;19920;-65
2022/12/01 07:11:44;;;;;;;;;;;25.00;36.90;;;;;;5072901;28;19950;-64
2022/12/01 07:14:21;;;;;;;;;;;25.10;36.80;;;;;;5098947;27;19928;-63
2022/12/01 07:16:46;;;;;;;;;;;24.90;37.00;;;;;;5102265;27;19920;-69
2022/12/01 07:19:12;;;;;;;;;;;24.70;37.40;;;;;;5085116;28;19920;-65
2022/12/01 07:21:37;;;;;;;;;;;24.50;37.90;;;;;;5087531;28;20390;-67
2022/12/01 07:24:03;;;;;;;;;;;24.50;38.10;;;;;;5085952;28;19926;-66
2022/12/01 07:26:29;;;;;;;;;;;24.50;38.20;;;;;;5077960;28;20003;-64
2022/12/01 07:28:54;;;;;;;;;;;24.50;38.20;;;;;;5077939;28;19977;-66
2022/12/01 07:31:20;;;;;;;;;;;24.30;38.40;;;;;;5077520;28;19928;-64
2022/12/01 07:33:45;;;;;;;;;;;24.10;38.70;;;;;;5071898;28;19940;-65
2022/12/01 07:36:11;;;;;;;;;;;23.80;39.10;;;;;;5069666;28;19931;-63
2022/12/01 07:38:37;;;;;;;;;;;23.50;39.70;;;;;;5071922;28;19924;-65
2022/12/01 07:41:04;;;;;;;;;;;23.20;40.10;;;;;;5070939;28;19956;-65
2022/12/01 07:43:30;;;;;;;;;;;22.90;40.70;;;;;;5069172;28;20011;-65
2022/12/01 07:45:56;;;;;;;;;;;22.60;41.10;;;;;;5069963;28;20435;-65
2022/12/01 07:48:22;;;;;;;;;;;22.40;41.50;;;;;;5071948;28;19967;-66
2022/12/01 07:50:47;;;;;;;;;;;22.10;41.80;;;;;;5104106;28;19932;-65
2022/12/01 07:53:13;;;;;;;;;;;22.00;42.20;;;;;;5073162;28;20260;-66
2022/12/01 07:55:38;;;;;;;;;;;21.80;42.40;;;;;;5069658;28;19920;-65
2022/12/01 07:58:04;;;;;;;;;;;21.70;42.80;;;;;;5074619;28;19924;-66
2022/12/01 08:00:29;;;;;;;;;;;21.60;43.10;;;;;;5075136;28;19931;-65
2022/12/01 08:02:55;;;;;;;;;;;21.60;43.40;;;;;;5074857;28;19999;-65
2022/12/01 08:05:21;;;;;;;;;;;21.50;43.60;;;;;;5076682;28;20029;-64
2022/12/01 08:07:46;;;;;;;;;;;21.40;43.90;;;;;;5071193;28;19928;-65
2022/12/01 08:10:12;;;;;;;;;;;21.40;44.20;;;;;;5101177;28;20898;-65
2022/12/01 08:12:37;;;;;;;;;;;21.30;44.40;;;;;;5075290;28;19920;-66
2022/12/01 08:15:03;;;;;;;;;;;21.20;44.70;;;;;;5075417;28;19921;-65
2022/12/01 08:17:28;;;;;;;;;;;21.10;44.80;;;;;;5073818;28;19938;-67
2022/12/01 08:19:54;;;;;;;;;;;21.10;45.20;;;;;;5070625;28;19925;-66
2022/12/01 08:22:19;;;;;;;;;;;21.00;45.40;;;;;;5070320;28;20362;-66
2022/12/01 08:24:45;;;;;;;;;;;20.90;45.60;;;;;;5072556;28;19928;-66
2022/12/01 08:27:10;;;;;;;;;;;20.80;45.80;;;;;;5071378;28;19936;-66
2022/12/01 08:29:36;;;;;;;;;;;20.70;46.10;;;;;;5068587;28;19999;-65
2022/12/01 08:32:01;;;;;;;;;;;20.60;46.30;;;;;;5070786;28;20011;-65
2022/12/01 08:34:27;;;;;;;;;;;20.60;46.50;;;;;;5074621;28;20383;-66
2022/12/01 08:36:52;;;;;;;;;;;20.60;46.80;;;;;;5078871;28;19935;-65
2022/12/01 08:39:18;;;;;;;;;;;20.70;46.90;;;;;;5075037;28;19973;-65
2022/12/01 08:41:44;;;;;;;;;;;20.90;46.60;;;;;;5075584;28;20318;-65
2022/12/01 08:44:09;;;;;;;;;;;21.20;45.90;;;;;;5077695;28;19920;-65
2022/12/01 08:46:35;;;;;;;;;;;21.50;45.30;;;;;;5076781;28;20663;-65
2022/12/01 08:49:01;;;;;;;;;;;21.70;44.70;;;;;;5077573;28;20335;-66
2022/12/01 08:51:27;;;;;;;;;;;22.00;44.20;;;;;;5076179;28;19927;-64
2022/12/01 08:53:53;;;;;;;;;;;22.10;43.90;;;;;;5106035;27;20644;-65
2022/12/01 08:56:22;;;;;;;;;;;22.10;43.60;;;;;;5076663;28;20015;-65
2022/12/01 08:58:49;;;;;;;;;;;22.20;43.50;;;;;;5074962;28;19924;-64
2022/12/01 09:01:15;;;;;;;;;;;22.20;43.40;;;;;;5076063;28;19924;-65
2022/12/01 09:03:42;;;;;;;;;;;22.10;43.40;;;;;;5074513;28;20716;-66
2022/12/01 09:06:09;;;;;;;;;;;22.00;43.50;;;;;;5074290;28;19928;-65
2022/12/01 09:08:35;;;;;;;;;;;21.90;43.70;;;;;;5073305;28;20435;-67
2022/12/01 09:11:02;;;;;;;;;;;21.80;44.00;;;;;;5071603;28;20273;-67
2022/12/01 09:13:28;;;;;;;;;;;21.60;44.30;;;;;;5072094;28;20489;-66
2022/12/01 09:15:56;;;;;;;;;;;21.50;44.70;;;;;;5068722;28;20419;-64
2022/12/01 09:18:21;;;;;;;;;;;21.40;45.00;;;;;;5066512;28;19963;-65
2022/12/01 09:20:47;;;;;;;;;;;21.80;45.00;;;;;;5101965;27;20003;-66
2022/12/01 09:23:13;;;;;;;;;;;22.40;44.20;;;;;;5065483;28;19960;-67
2022/12/01 09:25:38;;;;;;;;;;;23.10;43.10;;;;;;5068004;28;19935;-66
2022/12/01 09:28:04;;;;;;;;;;;24.00;41.70;;;;;;5072371;28;19930;-67
2022/12/01 09:30:29;;;;;;;;;;;24.80;40.30;;;;;;5073470;28;19928;-67
2022/12/01 09:32:55;;;;;;;;;;;25.50;39.10;;;;;;5072620;28;19924;-65
2022/12/01 09:35:20;;;;;;;;;;;26.10;38.40;;;;;;5079168;28;20519;-65
2022/12/01 09:37:46;;;;;;;;;;;26.60;37.60;;;;;;5074887;28;19920;-65
2022/12/01 09:40:13;;;;;;;;;;;26.80;37.30;;;;;;5075718;28;19924;-65
2022/12/01 09:42:39;;;;;;;;;;;26.80;37.00;;;;;;5077863;28;19920;-66
2022/12/01 09:45:05;;;;;;;;;;;26.80;37.10;;;;;;5069015;28;19924;-65
2022/12/01 09:47:35;;;;;;;;;;;26.70;37.10;;;;;;5072256;28;19935;-65
2022/12/01 09:50:08;;;;;;;;;;;26.50;37.20;;;;;;5072306;28;19943;-66
2022/12/01 09:52:40;;;;;;;;;;;26.30;37.20;;;;;;5066178;28;20093;-67
2022/12/01 09:55:10;;;;;;;;;;;25.90;37.20;;;;;;5068355;28;20573;-66
2022/12/01 09:57:37;;;;;;;;;;;25.40;37.60;;;;;;5071881;28;20046;-66
2022/12/01 10:00:07;;;;;;;;;;;24.80;38.30;;;;;;5068211;28;20260;-65
2022/12/01 10:02:36;;;;;;;;;;;24.40;39.10;;;;;;5104624;27;20432;-67
2022/12/01 10:05:04;;;;;;;;;;;24.00;39.90;;;;;;5068804;28;20338;-66
2022/12/01 10:07:31;;;;;;;;;;;23.70;40.40;;;;;;5072115;28;19981;-67
2022/12/01 10:09:58;;;;;;;;;;;23.60;40.80;;;;;;5062915;28;20040;-67
2022/12/01 10:12:28;;;;;;;;;;;23.40;41.10;;;;;;5072264;28;19921;-66
2022/12/01 10:14:59;;;;;;;;;;;23.40;41.40;;;;;;5099702;27;20015;-65
2022/12/01 10:20:12;;;;;;;;;;;23.10;42.00;;;;;;5077063;27;20832;-63
2022/12/01 10:25:20;;;;;;;;;;;22.50;42.90;;;;;;5059867;28;20263;-66
2022/12/01 10:28:06;;;;;;;;;;;22.10;43.50;;;;;;5055046;28;20011;-65
2022/12/01 10:30:38;;;;;;;;;;;22.10;44.00;;;;;;5048930;28;20379;-64
2022/12/01 10:35:44;;;;;;;;;;;21.90;44.50;;;;;;5054924;28;19954;-65
2022/12/01 10:38:12;;;;;;;;;;;21.20;44.50;;;;;;5056710;28;20380;-63
2022/12/01 10:40:39;;;;;;;;;;;21.80;45.20;;;;;;5048827;28;20043;-67
2022/12/01 10:43:05;;;;;;;;;;;21.60;45.30;;;;;;5051079;28;19932;-66
2022/12/01 10:45:33;;;;;;;;;;;21.50;45.50;;;;;;5053949;28;19929;-66
2022/12/01 10:48:19;;;;;;;;;;;21.40;45.80;;;;;;5064892;28;19979;-64
2022/12/01 10:50:46;;;;;;;;;;;21.30;46.00;;;;;;5055614;28;20392;-65
2022/12/01 10:53:25;;;;;;;;;;;21.10;46.10;;;;;;5056149;28;19921;-66
2022/12/01 10:56:11;;;;;;;;;;;21.00;46.40;;;;;;5051156;28;20158;-66
2022/12/01 11:01:26;;;;;;;;;;;20.80;47.00;;;;;;5080598;27;19924;-67
2022/12/01 11:03:56;;;;;;;;;;;20.70;47.40;;;;;;5078521;28;20723;-65
2022/12/01 11:06:24;;;;;;;;;;;20.70;47.70;;;;;;5056451;28;20007;-67
2022/12/01 11:08:51;;;;;;;;;;;21.30;47.40;;;;;;5111103;27;20423;-67
2022/12/01 11:11:26;;;;;;;;;;;22.00;46.40;;;;;;5083494;28;19920;-66
2022/12/01 11:13:52;;;;;;;;;;;22.90;45.10;;;;;;5083827;28;19924;-66
2022/12/01 11:16:38;;;;;;;;;;;23.80;43.40;;;;;;5079895;28;19921;-65
2022/12/01 11:19:08;;;;;;;;;;;24.80;41.90;;;;;;5070606;28;19925;-68
2022/12/01 11:21:34;;;;;;;;;;;25.70;40.60;;;;;;5085999;28;20015;-68
2022/12/01 11:23:59;;;;;;;;;;;26.30;39.50;;;;;;5080602;28;20041;-68
2022/12/01 11:26:27;;;;;;;;;;;26.80;38.70;;;;;;5079513;28;20304;-67
2022/12/01 11:31:41;;;;;;;;;;;27.30;37.70;;;;;;5084665;27;19931;-69
2022/12/01 11:36:54;;;;;;;;;;;26.90;37.20;;;;;;5091366;27;1869658;-70
2022/12/01 11:39:25;;;;;;;;;;;26.30;36.90;;;;;;5125746;27;20018;-65
2022/12/01 11:41:54;;;;;;;;;;;25.80;37.50;;;;;;5123070;27;19919;-70
2022/12/01 11:44:20;;;;;;;;;;;25.40;38.10;;;;;;5119236;27;19934;-69
2022/12/01 11:46:46;;;;;;;;;;;25.00;38.80;;;;;;5123344;27;19928;-67
2022/12/01 11:49:16;;;;;;;;;;;24.80;39.30;;;;;;5122052;27;20028;-70
2022/12/01 11:51:42;;;;;;;;;;;24.70;39.70;;;;;;5122718;27;19927;-69
2022/12/01 11:56:54;;;;;;;;;;;24.40;40.00;;;;;;5105040;27;1862048;-69
2022/12/01 11:59:27;;;;;;;;;;;24.40;40.10;;;;;;5143039;27;19923;-70
2022/12/01 12:07:39;;;;;;;;;;;24.50;39.80;;;;;;5088918;28;19926;-69
2022/12/01 12:15:39;;;;;;;;;;;24.70;39.30;;;;;;5092417;27;19927;-69
2022/12/01 12:21:14;;;;;;;;;;;24.70;39.10;;;;;;5068634;28;20524;-67
2022/12/01 12:23:48;;;;;;;;;;;24.70;39.20;;;;;;5055593;28;19925;-67
2022/12/01 12:26:34;;;;;;;;;;;24.70;39.40;;;;;;5060182;28;19928;-69
2022/12/01 12:31:45;;;;;;;;;;;24.70;39.30;;;;;;5102539;27;1857626;-71
2022/12/01 12:39:39;;;;;;;;;;;24.60;39.70;;;;;;5068201;28;19952;-69
2022/12/01 12:42:12;;;;;;;;;;;24.80;39.80;;;;;;5060349;28;19938;-70
2022/12/01 12:44:44;;;;;;;;;;;24.80;39.70;;;;;;5056332;28;19924;-68
2022/12/01 12:50:13;;;;;;;;;;;24.90;39.90;;;;;;5053001;28;19920;-68
2022/12/01 12:52:40;;;;;;;;;;;24.80;39.90;;;;;;5040484;28;19928;-68
2022/12/01 12:55:16;;;;;;;;;;;24.70;40.30;;;;;;5067341;28;19969;-68
2022/12/01 12:57:47;;;;;;;;;;;24.70;40.50;;;;;;5050814;28;19951;-65
2022/12/01 13:00:15;;;;;;;;;;;24.50;40.70;;;;;;5067003;28;19925;-66
2022/12/01 13:02:43;;;;;;;;;;;24.40;41.00;;;;;;5070454;28;20043;-67
2022/12/01 13:10:36;;;;;;;;;;;24.40;41.20;;;;;;5098133;27;1864735;-67
2022/12/01 13:13:10;;;;;;;;;;;24.40;41.30;;;;;;5134990;27;19930;-70
2022/12/01 13:15:37;;;;;;;;;;;24.60;41.30;;;;;;5132679;27;19929;-70
2022/12/01 13:18:12;;;;;;;;;;;24.70;41.20;;;;;;5133898;27;19988;-67
2022/12/01 13:20:37;;;;;;;;;;;24.70;41.10;;;;;;5133511;27;20889;-69
2022/12/01 13:23:03;;;;;;;;;;;24.70;41.00;;;;;;5139611;27;19929;-70
2022/12/01 13:25:33;;;;;;;;;;;24.60;41.20;;;;;;5136231;27;19930;-72
2022/12/01 13:28:00;;;;;;;;;;;24.60;41.30;;;;;;5138503;27;19930;-72
2022/12/01 13:30:26;;;;;;;;;;;24.60;41.30;;;;;;5133409;27;20413;-72
2022/12/01 13:33:00;;;;;;;;;;;24.70;41.20;;;;;;5139903;27;19922;-68
2022/12/01 13:38:20;;;;;;;;;;;24.70;41.10;;;;;;5068310;28;19923;-68
2022/12/01 13:40:45;;;;;;;;;;;24.50;41.20;;;;;;5051724;28;20007;-67
2022/12/01 13:43:16;;;;;;;;;;;24.30;41.60;;;;;;5049592;28;20011;-69
2022/12/01 13:45:41;;;;;;;;;;;24.20;41.90;;;;;;5050730;28;20011;-69
2022/12/01 13:48:25;;;;;;;;;;;24.00;42.30;;;;;;5053681;28;20432;-67
2022/12/01 13:50:54;;;;;;;;;;;23.70;42.60;;;;;;5049887;28;20381;-70
2022/12/01 13:56:18;;;;;;;;;;;23.40;43.40;;;;;;5095546;27;1864605;-63
2022/12/01 13:58:45;;;;;;;;;;;23.20;43.70;;;;;;5130033;27;19930;-68
2022/12/01 14:01:31;;;;;;;;;;;23.10;44.00;;;;;;5158377;27;19931;-67
2022/12/01 14:04:16;;;;;;;;;;;22.90;44.30;;;;;;5139202;27;19923;-65
2022/12/01 14:06:48;;;;;;;;;;;22.70;44.60;;;;;;5157908;27;19923;-65
2022/12/01 14:09:18;;;;;;;;;;;22.50;44.90;;;;;;5159298;27;19948;-67
2022/12/01 14:11:54;;;;;;;;;;;22.40;45.20;;;;;;5136633;27;19919;-67
2022/12/01 14:14:22;;;;;;;;;;;22.30;45.40;;;;;;5159432;27;20022;-67
2022/12/01 14:16:49;;;;;;;;;;;22.20;45.80;;;;;;5141763;27;20022;-68
2022/12/01 14:19:34;;;;;;;;;;;22.10;46.10;;;;;;5120209;27;19951;-68
2022/12/01 14:22:00;;;;;;;;;;;21.90;46.40;;;;;;5125662;27;19919;-67
2022/12/01 14:27:07;;;;;;;;;;;21.60;47.00;;;;;;5098947;27;1860219;-68
2022/12/01 14:29:37;;;;;;;;;;;21.50;47.30;;;;;;5133768;27;19923;-67
2022/12/01 14:32:18;;;;;;;;;;;21.30;47.40;;;;;;5140087;27;19959;-68
2022/12/01 14:34:43;;;;;;;;;;;21.20;47.70;;;;;;5136481;27;20433;-70
2022/12/01 14:37:12;;;;;;;;;;;21.10;47.90;;;;;;5135495;27;19920;-68
2022/12/01 14:39:41;;;;;;;;;;;21.00;48.00;;;;;;5136217;27;20351;-67
2022/12/01 14:44:48;;;;;;;;;;;20.80;48.30;;;;;;5088644;27;1874834;-68
2022/12/01 14:47:33;;;;;;;;;;;20.80;48.30;;;;;;5157843;27;19919;-68
2022/12/01 14:50:11;;;;;;;;;;;20.80;48.40;;;;;;5137660;27;19926;-68
2022/12/01 14:52:40;;;;;;;;;;;20.70;48.40;;;;;;5138509;27;19935;-67
2022/12/01 14:55:11;;;;;;;;;;;20.70;48.30;;;;;;5134768;27;19976;-68
2022/12/01 14:57:39;;;;;;;;;;;20.60;48.30;;;;;;5138219;27;20127;-68
2022/12/01 15:02:54;;;;;;;;;;;20.60;48.30;;;;;;5092707;27;19916;-67
2022/12/01 15:05:21;;;;;;;;;;;20.50;48.20;;;;;;5078967;28;19920;-67
2022/12/01 15:07:49;;;;;;;;;;;20.50;48.10;;;;;;5104686;28;19986;-66
2022/12/01 15:10:19;;;;;;;;;;;20.50;48.10;;;;;;5078997;28;19920;-66
2022/12/01 15:12:45;;;;;;;;;;;20.40;47.90;;;;;;5082533;28;19924;-63
2022/12/01 15:15:19;;;;;;;;;;;20.30;47.90;;;;;;5080738;28;19920;-68
2022/12/01 15:17:45;;;;;;;;;;;20.30;47.80;;;;;;5082303;28;20011;-67
2022/12/01 15:20:30;;;;;;;;;;;20.30;47.80;;;;;;5081221;28;20014;-67
2022/12/01 15:22:57;;;;;;;;;;;20.20;47.70;;;;;;5082231;28;19947;-67
2022/12/01 15:25:24;;;;;;;;;;;20.20;47.70;;;;;;5082766;28;20027;-67
2022/12/01 15:28:10;;;;;;;;;;;20.20;47.70;;;;;;5083358;28;19927;-67
2022/12/01 15:30:35;;;;;;;;;;;20.20;47.70;;;;;;5085274;28;19921;-67
2022/12/01 15:33:01;;;;;;;;;;;20.10;47.70;;;;;;5084059;28;20525;-66
2022/12/01 15:35:27;;;;;;;;;;;20.10;47.60;;;;;;5083024;28;19926;-67
2022/12/01 15:37:53;;;;;;;;;;;20.00;47.80;;;;;;5083380;28;20360;-67
2022/12/01 15:40:19;;;;;;;;;;;20.00;47.60;;;;;;5105473;28;19924;-67
2022/12/01 15:42:59;;;;;;;;;;;20.00;47.60;;;;;;5094707;28;20442;-67
2022/12/01 15:45:24;;;;;;;;;;;20.00;47.60;;;;;;5076479;28;19930;-67
2022/12/01 15:47:51;;;;;;;;;;;19.90;47.60;;;;;;5083081;28;20011;-66